sensor_id;sensor_type;location;lat;lon;timestamp;P1;durP1;ratioP1;P2;durP2;ratioP2
7835;SDS011;3963;42.658;23.298;2023-03-14T00:01:58;21.83;;;12.07;;
7835;SDS011;3963;42.658;23.298;2023-03-14T00:04:25;19.77;;;12.00;;
7835;SDS011;3963;42.658;23.298;2023-03-14T00:06:53;19.67;;;10.50;;
7835;SDS011;3963;42.658;23.298;2023-03-14T00:09:19;21.50;;;11.70;;
7835;SDS011;3963;42.658;23.298;2023-03-14T00:11:47;17.33;;;9.50;;
7835;SDS011;3963;42.658;23.298;2023-03-14T00:14:13;16.77;;;9.70;;
7835;SDS011;3963;42.658;23.298;2023-03-14T00:16:41;14.00;;;9.77;;
7835;SDS011;3963;42.658;23.298;2023-03-14T00:19:11;23.63;;;10.77;;
7835;SDS011;3963;42.658;23.298;2023-03-14T00:21:38;16.87;;;9.47;;
7835;SDS011;3963;42.658;23.298;2023-03-14T00:24:07;17.37;;;9.83;;
7835;SDS011;3963;42.658;23.298;2023-03-14T00:26:34;18.73;;;9.73;;
7835;SDS011;3963;42.658;23.298;2023-03-14T00:29:01;16.83;;;10.57;;
7835;SDS011;3963;42.658;23.298;2023-03-14T00:31:28;18.07;;;10.80;;
7835;SDS011;3963;42.658;23.298;2023-03-14T00:33:54;21.90;;;11.40;;
7835;SDS011;3963;42.658;23.298;2023-03-14T00:36:21;17.83;;;10.97;;
7835;SDS011;3963;42.658;23.298;2023-03-14T00:38:49;18.03;;;11.27;;
7835;SDS011;3963;42.658;23.298;2023-03-14T00:41:19;23.27;;;12.23;;
7835;SDS011;3963;42.658;23.298;2023-03-14T00:43:48;16.50;;;11.27;;
7835;SDS011;3963;42.658;23.298;2023-03-14T00:46:15;31.40;;;11.57;;
7835;SDS011;3963;42.658;23.298;2023-03-14T00:48:43;20.07;;;10.30;;
7835;SDS011;3963;42.658;23.298;2023-03-14T00:51:11;16.87;;;9.77;;
7835;SDS011;3963;42.658;23.298;2023-03-14T00:53:40;17.70;;;10.30;;
7835;SDS011;3963;42.658;23.298;2023-03-14T00:56:08;17.87;;;9.37;;
7835;SDS011;3963;42.658;23.298;2023-03-14T00:58:38;17.20;;;9.00;;
7835;SDS011;3963;42.658;23.298;2023-03-14T01:01:06;19.27;;;10.47;;
7835;SDS011;3963;42.658;23.298;2023-03-14T01:03:34;16.60;;;9.23;;
7835;SDS011;3963;42.658;23.298;2023-03-14T01:06:08;18.80;;;10.70;;
7835;SDS011;3963;42.658;23.298;2023-03-14T01:08:36;19.67;;;10.27;;
7835;SDS011;3963;42.658;23.298;2023-03-14T01:11:07;19.13;;;10.37;;
7835;SDS011;3963;42.658;23.298;2023-03-14T01:13:35;17.73;;;10.67;;
7835;SDS011;3963;42.658;23.298;2023-03-14T01:16:05;20.57;;;11.57;;
7835;SDS011;3963;42.658;23.298;2023-03-14T01:18:34;18.47;;;11.37;;
7835;SDS011;3963;42.658;23.298;2023-03-14T01:21:01;17.40;;;9.73;;
7835;SDS011;3963;42.658;23.298;2023-03-14T01:23:28;24.07;;;10.40;;
7835;SDS011;3963;42.658;23.298;2023-03-14T01:25:54;18.97;;;10.97;;
7835;SDS011;3963;42.658;23.298;2023-03-14T01:28:21;18.63;;;10.50;;
7835;SDS011;3963;42.658;23.298;2023-03-14T01:30:48;19.80;;;11.50;;
7835;SDS011;3963;42.658;23.298;2023-03-14T01:33:16;17.83;;;10.77;;
7835;SDS011;3963;42.658;23.298;2023-03-14T01:35:43;18.03;;;10.83;;
7835;SDS011;3963;42.658;23.298;2023-03-14T01:38:10;20.63;;;11.23;;
7835;SDS011;3963;42.658;23.298;2023-03-14T01:40:41;22.83;;;10.83;;
7835;SDS011;3963;42.658;23.298;2023-03-14T01:43:13;19.67;;;11.27;;
7835;SDS011;3963;42.658;23.298;2023-03-14T01:48:48;21.17;;;11.10;;
7835;SDS011;3963;42.658;23.298;2023-03-14T01:51:20;24.00;;;11.57;;
7835;SDS011;3963;42.658;23.298;2023-03-14T01:53:51;20.80;;;11.33;;
7835;SDS011;3963;42.658;23.298;2023-03-14T01:56:21;20.73;;;11.50;;
7835;SDS011;3963;42.658;23.298;2023-03-14T01:58:50;18.33;;;10.87;;
7835;SDS011;3963;42.658;23.298;2023-03-14T02:01:18;22.63;;;11.57;;
7835;SDS011;3963;42.658;23.298;2023-03-14T02:03:50;19.93;;;10.80;;
7835;SDS011;3963;42.658;23.298;2023-03-14T02:06:21;19.57;;;11.03;;
7835;SDS011;3963;42.658;23.298;2023-03-14T02:08:50;17.73;;;10.30;;
7835;SDS011;3963;42.658;23.298;2023-03-14T02:11:18;18.33;;;10.97;;
7835;SDS011;3963;42.658;23.298;2023-03-14T02:13:46;20.80;;;11.37;;
7835;SDS011;3963;42.658;23.298;2023-03-14T02:16:14;17.60;;;10.77;;
7835;SDS011;3963;42.658;23.298;2023-03-14T02:18:41;16.00;;;9.73;;
7835;SDS011;3963;42.658;23.298;2023-03-14T02:21:11;19.37;;;10.43;;
7835;SDS011;3963;42.658;23.298;2023-03-14T02:23:46;20.90;;;11.67;;
7835;SDS011;3963;42.658;23.298;2023-03-14T02:26:20;15.07;;;9.63;;
7835;SDS011;3963;42.658;23.298;2023-03-14T02:28:53;16.83;;;9.90;;
7835;SDS011;3963;42.658;23.298;2023-03-14T02:31:21;20.13;;;9.83;;
7835;SDS011;3963;42.658;23.298;2023-03-14T02:33:49;19.70;;;9.83;;
7835;SDS011;3963;42.658;23.298;2023-03-14T02:36:17;16.30;;;10.33;;
7835;SDS011;3963;42.658;23.298;2023-03-14T02:38:47;20.83;;;10.53;;
7835;SDS011;3963;42.658;23.298;2023-03-14T02:41:19;23.30;;;10.93;;
7835;SDS011;3963;42.658;23.298;2023-03-14T02:43:46;18.60;;;10.23;;
7835;SDS011;3963;42.658;23.298;2023-03-14T02:46:15;19.90;;;10.37;;
7835;SDS011;3963;42.658;23.298;2023-03-14T02:48:45;21.03;;;9.87;;
7835;SDS011;3963;42.658;23.298;2023-03-14T02:51:15;18.80;;;9.97;;
7835;SDS011;3963;42.658;23.298;2023-03-14T02:53:43;17.90;;;10.03;;
7835;SDS011;3963;42.658;23.298;2023-03-14T02:56:10;14.80;;;9.90;;
7835;SDS011;3963;42.658;23.298;2023-03-14T02:58:37;21.40;;;10.90;;
7835;SDS011;3963;42.658;23.298;2023-03-14T03:01:04;20.80;;;10.20;;
7835;SDS011;3963;42.658;23.298;2023-03-14T03:03:33;19.37;;;10.57;;
7835;SDS011;3963;42.658;23.298;2023-03-14T03:05:59;18.83;;;10.17;;
7835;SDS011;3963;42.658;23.298;2023-03-14T03:08:27;14.77;;;8.77;;
7835;SDS011;3963;42.658;23.298;2023-03-14T03:10:54;16.33;;;9.10;;
7835;SDS011;3963;42.658;23.298;2023-03-14T03:13:23;18.10;;;9.70;;
7835;SDS011;3963;42.658;23.298;2023-03-14T03:15:50;17.50;;;10.07;;
7835;SDS011;3963;42.658;23.298;2023-03-14T03:18:16;23.27;;;10.47;;
7835;SDS011;3963;42.658;23.298;2023-03-14T03:20:44;25.43;;;11.20;;
7835;SDS011;3963;42.658;23.298;2023-03-14T03:23:11;18.40;;;10.50;;
7835;SDS011;3963;42.658;23.298;2023-03-14T03:25:38;19.93;;;10.77;;
7835;SDS011;3963;42.658;23.298;2023-03-14T03:28:05;21.50;;;10.80;;
7835;SDS011;3963;42.658;23.298;2023-03-14T03:30:33;17.80;;;9.67;;
7835;SDS011;3963;42.658;23.298;2023-03-14T03:33:02;16.97;;;9.90;;
7835;SDS011;3963;42.658;23.298;2023-03-14T03:35:29;20.50;;;10.67;;
7835;SDS011;3963;42.658;23.298;2023-03-14T03:37:57;14.77;;;9.70;;
7835;SDS011;3963;42.658;23.298;2023-03-14T03:40:24;21.00;;;9.67;;
7835;SDS011;3963;42.658;23.298;2023-03-14T03:42:51;15.90;;;9.00;;
7835;SDS011;3963;42.658;23.298;2023-03-14T03:45:18;15.43;;;8.90;;
7835;SDS011;3963;42.658;23.298;2023-03-14T03:47:45;13.10;;;8.30;;
7835;SDS011;3963;42.658;23.298;2023-03-14T03:50:12;20.53;;;10.03;;
7835;SDS011;3963;42.658;23.298;2023-03-14T03:52:39;15.33;;;10.20;;
7835;SDS011;3963;42.658;23.298;2023-03-14T03:55:07;21.10;;;9.60;;
7835;SDS011;3963;42.658;23.298;2023-03-14T03:57:34;20.23;;;10.87;;
7835;SDS011;3963;42.658;23.298;2023-03-14T04:00:02;19.70;;;10.30;;
7835;SDS011;3963;42.658;23.298;2023-03-14T04:02:30;20.60;;;11.37;;
7835;SDS011;3963;42.658;23.298;2023-03-14T04:04:57;21.70;;;10.57;;
7835;SDS011;3963;42.658;23.298;2023-03-14T04:07:24;26.30;;;11.10;;
7835;SDS011;3963;42.658;23.298;2023-03-14T04:09:50;22.30;;;11.10;;
7835;SDS011;3963;42.658;23.298;2023-03-14T04:12:19;21.87;;;11.57;;
7835;SDS011;3963;42.658;23.298;2023-03-14T04:14:46;20.63;;;10.90;;
7835;SDS011;3963;42.658;23.298;2023-03-14T04:17:13;27.77;;;11.53;;
7835;SDS011;3963;42.658;23.298;2023-03-14T04:19:39;23.57;;;10.27;;
7835;SDS011;3963;42.658;23.298;2023-03-14T04:22:07;18.03;;;10.50;;
7835;SDS011;3963;42.658;23.298;2023-03-14T04:24:33;24.67;;;12.47;;
7835;SDS011;3963;42.658;23.298;2023-03-14T04:27:00;19.97;;;10.37;;
7835;SDS011;3963;42.658;23.298;2023-03-14T04:29:28;29.87;;;13.73;;
7835;SDS011;3963;42.658;23.298;2023-03-14T04:31:55;26.17;;;13.80;;
7835;SDS011;3963;42.658;23.298;2023-03-14T04:34:22;30.30;;;14.47;;
7835;SDS011;3963;42.658;23.298;2023-03-14T04:36:48;33.07;;;15.00;;
7835;SDS011;3963;42.658;23.298;2023-03-14T04:39:15;27.47;;;14.40;;
7835;SDS011;3963;42.658;23.298;2023-03-14T04:41:42;19.00;;;11.27;;
7835;SDS011;3963;42.658;23.298;2023-03-14T04:44:10;24.33;;;11.93;;
7835;SDS011;3963;42.658;23.298;2023-03-14T04:46:38;23.73;;;11.60;;
7835;SDS011;3963;42.658;23.298;2023-03-14T04:49:05;23.63;;;12.73;;
7835;SDS011;3963;42.658;23.298;2023-03-14T04:51:33;29.53;;;12.87;;
7835;SDS011;3963;42.658;23.298;2023-03-14T04:53:59;23.90;;;12.63;;
7835;SDS011;3963;42.658;23.298;2023-03-14T04:56:26;25.73;;;12.73;;
7835;SDS011;3963;42.658;23.298;2023-03-14T04:58:53;26.57;;;13.57;;
7835;SDS011;3963;42.658;23.298;2023-03-14T05:01:20;25.77;;;13.53;;
7835;SDS011;3963;42.658;23.298;2023-03-14T05:03:48;27.17;;;13.67;;
7835;SDS011;3963;42.658;23.298;2023-03-14T05:06:15;29.87;;;14.13;;
7835;SDS011;3963;42.658;23.298;2023-03-14T05:08:42;30.13;;;13.70;;
7835;SDS011;3963;42.658;23.298;2023-03-14T05:11:09;26.97;;;13.37;;
7835;SDS011;3963;42.658;23.298;2023-03-14T05:13:36;30.63;;;15.23;;
7835;SDS011;3963;42.658;23.298;2023-03-14T05:16:04;31.23;;;15.80;;
7835;SDS011;3963;42.658;23.298;2023-03-14T05:18:31;30.93;;;16.23;;
7835;SDS011;3963;42.658;23.298;2023-03-14T05:20:59;36.60;;;14.83;;
7835;SDS011;3963;42.658;23.298;2023-03-14T05:23:26;25.77;;;13.37;;
7835;SDS011;3963;42.658;23.298;2023-03-14T05:25:53;32.10;;;13.60;;
7835;SDS011;3963;42.658;23.298;2023-03-14T05:28:20;29.70;;;12.97;;
7835;SDS011;3963;42.658;23.298;2023-03-14T05:30:47;28.53;;;11.97;;
7835;SDS011;3963;42.658;23.298;2023-03-14T05:33:13;22.70;;;13.37;;
7835;SDS011;3963;42.658;23.298;2023-03-14T05:35:41;26.00;;;12.87;;
7835;SDS011;3963;42.658;23.298;2023-03-14T05:38:09;28.47;;;15.23;;
7835;SDS011;3963;42.658;23.298;2023-03-14T05:40:36;26.07;;;13.40;;
7835;SDS011;3963;42.658;23.298;2023-03-14T05:43:03;37.37;;;15.63;;
7835;SDS011;3963;42.658;23.298;2023-03-14T05:45:29;34.73;;;15.23;;
7835;SDS011;3963;42.658;23.298;2023-03-14T05:47:56;38.00;;;15.37;;
7835;SDS011;3963;42.658;23.298;2023-03-14T05:50:23;31.87;;;14.47;;
7835;SDS011;3963;42.658;23.298;2023-03-14T05:52:49;34.23;;;14.57;;
7835;SDS011;3963;42.658;23.298;2023-03-14T05:55:18;28.87;;;15.07;;
7835;SDS011;3963;42.658;23.298;2023-03-14T05:57:44;32.07;;;13.03;;
7835;SDS011;3963;42.658;23.298;2023-03-14T06:00:12;33.80;;;14.53;;
7835;SDS011;3963;42.658;23.298;2023-03-14T06:02:39;34.60;;;13.87;;
7835;SDS011;3963;42.658;23.298;2023-03-14T06:05:07;26.90;;;14.37;;
7835;SDS011;3963;42.658;23.298;2023-03-14T06:07:33;21.30;;;12.20;;
7835;SDS011;3963;42.658;23.298;2023-03-14T06:10:00;19.63;;;12.23;;
7835;SDS011;3963;42.658;23.298;2023-03-14T06:12:28;21.30;;;11.93;;
7835;SDS011;3963;42.658;23.298;2023-03-14T06:14:55;22.43;;;12.53;;
7835;SDS011;3963;42.658;23.298;2023-03-14T06:17:22;28.27;;;13.27;;
7835;SDS011;3963;42.658;23.298;2023-03-14T06:19:49;20.13;;;12.17;;
7835;SDS011;3963;42.658;23.298;2023-03-14T06:22:16;23.53;;;12.47;;
7835;SDS011;3963;42.658;23.298;2023-03-14T06:24:42;26.60;;;13.27;;
7835;SDS011;3963;42.658;23.298;2023-03-14T06:27:09;21.63;;;13.43;;
7835;SDS011;3963;42.658;23.298;2023-03-14T06:29:38;27.60;;;12.57;;
7835;SDS011;3963;42.658;23.298;2023-03-14T06:32:04;23.27;;;14.13;;
7835;SDS011;3963;42.658;23.298;2023-03-14T06:34:31;19.27;;;12.40;;
7835;SDS011;3963;42.658;23.298;2023-03-14T06:36:58;22.47;;;12.10;;
7835;SDS011;3963;42.658;23.298;2023-03-14T06:39:24;26.10;;;12.43;;
7835;SDS011;3963;42.658;23.298;2023-03-14T06:41:51;21.63;;;11.73;;
7835;SDS011;3963;42.658;23.298;2023-03-14T06:44:18;18.60;;;11.40;;
7835;SDS011;3963;42.658;23.298;2023-03-14T06:46:46;15.80;;;10.90;;
7835;SDS011;3963;42.658;23.298;2023-03-14T06:49:13;20.10;;;11.13;;
7835;SDS011;3963;42.658;23.298;2023-03-14T06:51:39;17.13;;;10.80;;
7835;SDS011;3963;42.658;23.298;2023-03-14T06:54:07;19.60;;;11.00;;
7835;SDS011;3963;42.658;23.298;2023-03-14T06:56:33;14.73;;;11.23;;
7835;SDS011;3963;42.658;23.298;2023-03-14T06:59:00;16.33;;;11.23;;
7835;SDS011;3963;42.658;23.298;2023-03-14T07:01:27;20.03;;;11.30;;
7835;SDS011;3963;42.658;23.298;2023-03-14T07:03:56;17.87;;;11.10;;
7835;SDS011;3963;42.658;23.298;2023-03-14T07:06:23;23.63;;;12.30;;
7835;SDS011;3963;42.658;23.298;2023-03-14T07:08:51;24.90;;;12.00;;
7835;SDS011;3963;42.658;23.298;2023-03-14T07:11:17;19.57;;;12.00;;
7835;SDS011;3963;42.658;23.298;2023-03-14T07:13:44;21.03;;;12.10;;
7835;SDS011;3963;42.658;23.298;2023-03-14T07:16:11;22.33;;;10.87;;
7835;SDS011;3963;42.658;23.298;2023-03-14T07:18:37;19.47;;;11.27;;
7835;SDS011;3963;42.658;23.298;2023-03-14T07:21:06;20.23;;;10.07;;
7835;SDS011;3963;42.658;23.298;2023-03-14T07:23:35;18.60;;;10.53;;
7835;SDS011;3963;42.658;23.298;2023-03-14T07:26:02;16.77;;;10.13;;
7835;SDS011;3963;42.658;23.298;2023-03-14T07:28:28;18.50;;;8.97;;
7835;SDS011;3963;42.658;23.298;2023-03-14T07:30:55;21.13;;;9.77;;
7835;SDS011;3963;42.658;23.298;2023-03-14T07:33:22;17.17;;;9.33;;
7835;SDS011;3963;42.658;23.298;2023-03-14T07:35:49;16.63;;;8.93;;
7835;SDS011;3963;42.658;23.298;2023-03-14T07:38:17;13.27;;;9.00;;
7835;SDS011;3963;42.658;23.298;2023-03-14T07:40:47;14.47;;;9.00;;
7835;SDS011;3963;42.658;23.298;2023-03-14T07:43:14;12.73;;;8.47;;
7835;SDS011;3963;42.658;23.298;2023-03-14T07:45:40;14.60;;;9.17;;
7835;SDS011;3963;42.658;23.298;2023-03-14T07:48:07;13.97;;;8.37;;
7835;SDS011;3963;42.658;23.298;2023-03-14T07:50:34;17.37;;;8.03;;
7835;SDS011;3963;42.658;23.298;2023-03-14T07:53:01;14.43;;;7.97;;
7835;SDS011;3963;42.658;23.298;2023-03-14T07:55:29;11.87;;;7.07;;
7835;SDS011;3963;42.658;23.298;2023-03-14T07:57:56;15.00;;;7.30;;
7835;SDS011;3963;42.658;23.298;2023-03-14T08:00:23;14.00;;;7.53;;
7835;SDS011;3963;42.658;23.298;2023-03-14T08:02:50;10.87;;;6.63;;
7835;SDS011;3963;42.658;23.298;2023-03-14T08:05:17;14.20;;;7.37;;
7835;SDS011;3963;42.658;23.298;2023-03-14T08:07:44;14.87;;;7.63;;
7835;SDS011;3963;42.658;23.298;2023-03-14T08:10:10;13.90;;;8.90;;
7835;SDS011;3963;42.658;23.298;2023-03-14T08:12:42;16.87;;;9.07;;
7835;SDS011;3963;42.658;23.298;2023-03-14T08:15:09;16.83;;;8.67;;
7835;SDS011;3963;42.658;23.298;2023-03-14T08:17:36;17.37;;;10.27;;
7835;SDS011;3963;42.658;23.298;2023-03-14T08:20:03;16.87;;;10.23;;
7835;SDS011;3963;42.658;23.298;2023-03-14T08:22:33;20.17;;;9.70;;
7835;SDS011;3963;42.658;23.298;2023-03-14T08:25:00;15.63;;;9.93;;
7835;SDS011;3963;42.658;23.298;2023-03-14T08:27:27;17.90;;;10.67;;
7835;SDS011;3963;42.658;23.298;2023-03-14T08:29:55;15.20;;;10.20;;
7835;SDS011;3963;42.658;23.298;2023-03-14T08:32:22;18.17;;;10.97;;
7835;SDS011;3963;42.658;23.298;2023-03-14T08:34:49;17.83;;;10.67;;
7835;SDS011;3963;42.658;23.298;2023-03-14T08:37:16;15.97;;;10.53;;
7835;SDS011;3963;42.658;23.298;2023-03-14T08:39:44;19.70;;;11.47;;
7835;SDS011;3963;42.658;23.298;2023-03-14T08:42:10;17.47;;;10.87;;
7835;SDS011;3963;42.658;23.298;2023-03-14T08:44:37;17.37;;;11.03;;
7835;SDS011;3963;42.658;23.298;2023-03-14T08:47:05;16.70;;;11.30;;
7835;SDS011;3963;42.658;23.298;2023-03-14T08:49:32;18.93;;;12.13;;
7835;SDS011;3963;42.658;23.298;2023-03-14T08:51:58;17.93;;;11.43;;
7835;SDS011;3963;42.658;23.298;2023-03-14T08:54:27;18.87;;;11.40;;
7835;SDS011;3963;42.658;23.298;2023-03-14T08:56:53;16.73;;;11.63;;
7835;SDS011;3963;42.658;23.298;2023-03-14T08:59:21;18.83;;;12.27;;
7835;SDS011;3963;42.658;23.298;2023-03-14T09:01:48;21.83;;;12.60;;
7835;SDS011;3963;42.658;23.298;2023-03-14T09:04:16;13.80;;;9.67;;
7835;SDS011;3963;42.658;23.298;2023-03-14T09:06:43;16.20;;;11.23;;
7835;SDS011;3963;42.658;23.298;2023-03-14T09:09:10;22.53;;;11.03;;
7835;SDS011;3963;42.658;23.298;2023-03-14T09:11:38;17.03;;;10.77;;
7835;SDS011;3963;42.658;23.298;2023-03-14T09:14:05;14.63;;;9.93;;
7835;SDS011;3963;42.658;23.298;2023-03-14T09:16:32;12.83;;;8.43;;
7835;SDS011;3963;42.658;23.298;2023-03-14T09:18:59;14.20;;;8.90;;
7835;SDS011;3963;42.658;23.298;2023-03-14T09:21:28;18.40;;;10.27;;
7835;SDS011;3963;42.658;23.298;2023-03-14T09:23:55;16.90;;;10.13;;
7835;SDS011;3963;42.658;23.298;2023-03-14T09:26:21;12.20;;;9.07;;
7835;SDS011;3963;42.658;23.298;2023-03-14T09:28:48;19.63;;;10.37;;
7835;SDS011;3963;42.658;23.298;2023-03-14T09:31:15;13.67;;;8.90;;
7835;SDS011;3963;42.658;23.298;2023-03-14T09:33:42;15.47;;;9.40;;
7835;SDS011;3963;42.658;23.298;2023-03-14T09:36:09;16.07;;;8.90;;
7835;SDS011;3963;42.658;23.298;2023-03-14T09:38:38;12.80;;;8.77;;
7835;SDS011;3963;42.658;23.298;2023-03-14T09:41:11;13.07;;;7.53;;
7835;SDS011;3963;42.658;23.298;2023-03-14T09:43:41;14.33;;;8.53;;
7835;SDS011;3963;42.658;23.298;2023-03-14T09:46:10;17.93;;;9.13;;
7835;SDS011;3963;42.658;23.298;2023-03-14T09:48:39;27.07;;;16.80;;
7835;SDS011;3963;42.658;23.298;2023-03-14T09:51:11;21.27;;;9.73;;
7835;SDS011;3963;42.658;23.298;2023-03-14T09:53:43;13.93;;;8.30;;
7835;SDS011;3963;42.658;23.298;2023-03-14T09:56:12;17.77;;;11.37;;
7835;SDS011;3963;42.658;23.298;2023-03-14T09:58:44;13.13;;;8.73;;
7835;SDS011;3963;42.658;23.298;2023-03-14T10:01:15;14.27;;;8.33;;
7835;SDS011;3963;42.658;23.298;2023-03-14T10:03:46;16.70;;;10.27;;
7835;SDS011;3963;42.658;23.298;2023-03-14T10:06:13;12.97;;;7.70;;
7835;SDS011;3963;42.658;23.298;2023-03-14T10:08:42;12.53;;;9.00;;
7835;SDS011;3963;42.658;23.298;2023-03-14T10:11:13;15.80;;;8.50;;
7835;SDS011;3963;42.658;23.298;2023-03-14T10:13:47;11.87;;;8.20;;
7835;SDS011;3963;42.658;23.298;2023-03-14T10:16:16;12.73;;;7.27;;
7835;SDS011;3963;42.658;23.298;2023-03-14T10:18:44;15.20;;;7.97;;
7835;SDS011;3963;42.658;23.298;2023-03-14T10:21:17;12.43;;;8.37;;
7835;SDS011;3963;42.658;23.298;2023-03-14T10:23:48;13.50;;;8.17;;
7835;SDS011;3963;42.658;23.298;2023-03-14T10:26:16;14.83;;;8.53;;
7835;SDS011;3963;42.658;23.298;2023-03-14T10:28:44;12.60;;;8.03;;
7835;SDS011;3963;42.658;23.298;2023-03-14T10:31:12;13.60;;;7.80;;
7835;SDS011;3963;42.658;23.298;2023-03-14T10:33:39;10.90;;;7.80;;
7835;SDS011;3963;42.658;23.298;2023-03-14T10:36:14;14.10;;;7.90;;
7835;SDS011;3963;42.658;23.298;2023-03-14T10:38:45;15.83;;;8.40;;
7835;SDS011;3963;42.658;23.298;2023-03-14T10:41:17;12.80;;;7.70;;
7835;SDS011;3963;42.658;23.298;2023-03-14T10:43:49;9.47;;;7.40;;
7835;SDS011;3963;42.658;23.298;2023-03-14T10:46:18;13.07;;;8.93;;
7835;SDS011;3963;42.658;23.298;2023-03-14T10:48:46;16.07;;;8.60;;
7835;SDS011;3963;42.658;23.298;2023-03-14T10:51:18;13.17;;;8.17;;
7835;SDS011;3963;42.658;23.298;2023-03-14T10:53:46;15.47;;;8.67;;
7835;SDS011;3963;42.658;23.298;2023-03-14T10:56:15;12.37;;;7.97;;
7835;SDS011;3963;42.658;23.298;2023-03-14T10:58:45;12.30;;;8.17;;
7835;SDS011;3963;42.658;23.298;2023-03-14T11:01:20;14.43;;;7.10;;
7835;SDS011;3963;42.658;23.298;2023-03-14T11:03:56;11.43;;;7.30;;
7835;SDS011;3963;42.658;23.298;2023-03-14T11:06:30;9.63;;;6.37;;
7835;SDS011;3963;42.658;23.298;2023-03-14T11:09:05;14.50;;;7.30;;
7835;SDS011;3963;42.658;23.298;2023-03-14T11:11:38;11.27;;;6.87;;
7835;SDS011;3963;42.658;23.298;2023-03-14T11:14:11;8.67;;;6.07;;
7835;SDS011;3963;42.658;23.298;2023-03-14T11:16:47;7.93;;;5.23;;
7835;SDS011;3963;42.658;23.298;2023-03-14T11:19:22;10.07;;;5.90;;
7835;SDS011;3963;42.658;23.298;2023-03-14T11:21:59;11.07;;;5.30;;
7835;SDS011;3963;42.658;23.298;2023-03-14T11:24:37;10.17;;;5.60;;
7835;SDS011;3963;42.658;23.298;2023-03-14T11:27:18;8.67;;;5.30;;
7835;SDS011;3963;42.658;23.298;2023-03-14T11:29:53;8.97;;;5.63;;
7835;SDS011;3963;42.658;23.298;2023-03-14T11:32:25;7.43;;;4.87;;
7835;SDS011;3963;42.658;23.298;2023-03-14T11:35:03;8.37;;;5.30;;
7835;SDS011;3963;42.658;23.298;2023-03-14T11:37:40;8.83;;;5.23;;
7835;SDS011;3963;42.658;23.298;2023-03-14T11:40:13;6.80;;;4.77;;
7835;SDS011;3963;42.658;23.298;2023-03-14T11:42:45;4.70;;;3.70;;
7835;SDS011;3963;42.658;23.298;2023-03-14T11:45:18;6.13;;;3.87;;
7835;SDS011;3963;42.658;23.298;2023-03-14T11:47:51;7.00;;;3.93;;
7835;SDS011;3963;42.658;23.298;2023-03-14T11:50:25;7.90;;;4.00;;
7835;SDS011;3963;42.658;23.298;2023-03-14T11:52:56;7.77;;;4.30;;
7835;SDS011;3963;42.658;23.298;2023-03-14T11:55:30;7.87;;;3.60;;
7835;SDS011;3963;42.658;23.298;2023-03-14T11:58:01;6.63;;;4.30;;
7835;SDS011;3963;42.658;23.298;2023-03-14T12:00:35;9.27;;;4.03;;
7835;SDS011;3963;42.658;23.298;2023-03-14T12:03:09;7.33;;;3.80;;
7835;SDS011;3963;42.658;23.298;2023-03-14T12:05:43;5.37;;;4.10;;
7835;SDS011;3963;42.658;23.298;2023-03-14T12:08:42;5.67;;;3.53;;
7835;SDS011;3963;42.658;23.298;2023-03-14T12:11:30;4.40;;;3.80;;
7835;SDS011;3963;42.658;23.298;2023-03-14T12:14:01;8.47;;;4.27;;
7835;SDS011;3963;42.658;23.298;2023-03-14T12:16:33;7.40;;;3.47;;
7835;SDS011;3963;42.658;23.298;2023-03-14T12:19:14;6.50;;;3.47;;
7835;SDS011;3963;42.658;23.298;2023-03-14T12:21:52;4.87;;;3.60;;
7835;SDS011;3963;42.658;23.298;2023-03-14T12:24:24;7.57;;;3.37;;
7835;SDS011;3963;42.658;23.298;2023-03-14T12:26:55;6.47;;;3.77;;
7835;SDS011;3963;42.658;23.298;2023-03-14T12:29:24;5.67;;;3.47;;
7835;SDS011;3963;42.658;23.298;2023-03-14T12:32:06;9.13;;;3.60;;
7835;SDS011;3963;42.658;23.298;2023-03-14T12:34:38;4.47;;;3.30;;
7835;SDS011;3963;42.658;23.298;2023-03-14T12:37:10;4.43;;;3.13;;
7835;SDS011;3963;42.658;23.298;2023-03-14T12:39:47;4.23;;;3.03;;
7835;SDS011;3963;42.658;23.298;2023-03-14T12:42:35;10.03;;;3.50;;
7835;SDS011;3963;42.658;23.298;2023-03-14T12:45:23;8.90;;;3.70;;
7835;SDS011;3963;42.658;23.298;2023-03-14T12:47:52;6.27;;;3.37;;
7835;SDS011;3963;42.658;23.298;2023-03-14T12:50:24;5.37;;;3.30;;
7835;SDS011;3963;42.658;23.298;2023-03-14T12:53:02;6.47;;;3.40;;
7835;SDS011;3963;42.658;23.298;2023-03-14T12:55:53;7.83;;;3.03;;
7835;SDS011;3963;42.658;23.298;2023-03-14T12:58:26;4.83;;;2.83;;
7835;SDS011;3963;42.658;23.298;2023-03-14T13:01:00;5.10;;;2.87;;
7835;SDS011;3963;42.658;23.298;2023-03-14T13:03:36;3.40;;;2.87;;
7835;SDS011;3963;42.658;23.298;2023-03-14T13:06:05;8.90;;;3.00;;
7835;SDS011;3963;42.658;23.298;2023-03-14T13:08:36;5.03;;;3.20;;
7835;SDS011;3963;42.658;23.298;2023-03-14T13:11:07;6.83;;;2.77;;
7835;SDS011;3963;42.658;23.298;2023-03-14T13:13:37;5.47;;;2.70;;
7835;SDS011;3963;42.658;23.298;2023-03-14T13:16:12;2.83;;;2.53;;
7835;SDS011;3963;42.658;23.298;2023-03-14T13:18:42;4.63;;;3.07;;
7835;SDS011;3963;42.658;23.298;2023-03-14T13:21:10;8.43;;;3.30;;
7835;SDS011;3963;42.658;23.298;2023-03-14T13:23:41;6.00;;;3.13;;
7835;SDS011;3963;42.658;23.298;2023-03-14T13:26:20;3.90;;;2.90;;
7835;SDS011;3963;42.658;23.298;2023-03-14T13:28:49;3.83;;;2.90;;
7835;SDS011;3963;42.658;23.298;2023-03-14T13:31:20;4.27;;;2.23;;
7835;SDS011;3963;42.658;23.298;2023-03-14T13:33:56;4.60;;;2.47;;
7835;SDS011;3963;42.658;23.298;2023-03-14T13:36:23;5.37;;;2.63;;
7835;SDS011;3963;42.658;23.298;2023-03-14T13:38:55;4.37;;;3.23;;
7835;SDS011;3963;42.658;23.298;2023-03-14T13:41:23;3.23;;;2.53;;
7835;SDS011;3963;42.658;23.298;2023-03-14T13:43:50;3.87;;;2.57;;
7835;SDS011;3963;42.658;23.298;2023-03-14T13:46:19;3.83;;;2.30;;
7835;SDS011;3963;42.658;23.298;2023-03-14T13:48:50;7.63;;;2.50;;
7835;SDS011;3963;42.658;23.298;2023-03-14T13:51:20;5.67;;;2.77;;
7835;SDS011;3963;42.658;23.298;2023-03-14T13:53:50;5.63;;;3.10;;
7835;SDS011;3963;42.658;23.298;2023-03-14T13:56:18;2.70;;;2.27;;
7835;SDS011;3963;42.658;23.298;2023-03-14T13:58:46;3.97;;;2.80;;
7835;SDS011;3963;42.658;23.298;2023-03-14T14:01:14;4.20;;;2.37;;
7835;SDS011;3963;42.658;23.298;2023-03-14T14:03:46;3.73;;;2.33;;
7835;SDS011;3963;42.658;23.298;2023-03-14T14:06:28;4.13;;;2.33;;
7835;SDS011;3963;42.658;23.298;2023-03-14T14:08:58;4.80;;;2.77;;
7835;SDS011;3963;42.658;23.298;2023-03-14T14:11:31;7.03;;;2.50;;
7835;SDS011;3963;42.658;23.298;2023-03-14T14:14:05;5.60;;;2.30;;
7835;SDS011;3963;42.658;23.298;2023-03-14T14:16:38;8.17;;;2.80;;
7835;SDS011;3963;42.658;23.298;2023-03-14T14:19:07;5.93;;;4.00;;
7835;SDS011;3963;42.658;23.298;2023-03-14T14:21:34;4.17;;;2.30;;
7835;SDS011;3963;42.658;23.298;2023-03-14T14:24:01;12.03;;;2.97;;
7835;SDS011;3963;42.658;23.298;2023-03-14T14:26:29;5.13;;;2.40;;
7835;SDS011;3963;42.658;23.298;2023-03-14T14:28:59;3.30;;;2.13;;
7835;SDS011;3963;42.658;23.298;2023-03-14T14:31:27;4.23;;;2.60;;
7835;SDS011;3963;42.658;23.298;2023-03-14T14:33:55;5.67;;;2.50;;
7835;SDS011;3963;42.658;23.298;2023-03-14T14:36:24;7.30;;;3.07;;
7835;SDS011;3963;42.658;23.298;2023-03-14T14:38:57;5.17;;;2.47;;
7835;SDS011;3963;42.658;23.298;2023-03-14T14:41:31;6.20;;;2.70;;
7835;SDS011;3963;42.658;23.298;2023-03-14T14:44:00;2.83;;;2.27;;
7835;SDS011;3963;42.658;23.298;2023-03-14T14:46:30;4.23;;;1.90;;
7835;SDS011;3963;42.658;23.298;2023-03-14T14:49:01;3.43;;;2.30;;
7835;SDS011;3963;42.658;23.298;2023-03-14T14:51:40;6.47;;;2.63;;
7835;SDS011;3963;42.658;23.298;2023-03-14T14:54:15;4.07;;;2.50;;
7835;SDS011;3963;42.658;23.298;2023-03-14T14:56:46;3.00;;;2.27;;
7835;SDS011;3963;42.658;23.298;2023-03-14T14:59:20;3.60;;;2.30;;
7835;SDS011;3963;42.658;23.298;2023-03-14T15:01:48;3.63;;;2.17;;